createdAt,value
2023-03-28T00:01:39.855Z,5.29
2023-03-28T00:04:12.980Z,5.30
2023-03-28T00:06:45.785Z,5.27
2023-03-28T00:09:15.578Z,5.26
2023-03-28T00:11:48.809Z,5.25
2023-03-28T00:14:18.624Z,5.23
2023-03-28T00:16:48.508Z,5.21
2023-03-28T00:19:20.820Z,5.16
2023-03-28T00:21:55.020Z,5.16
2023-03-28T00:24:30.942Z,5.16
2023-03-28T00:27:06.963Z,5.16
2023-03-28T00:29:37.209Z,5.14
2023-03-28T00:32:08.697Z,5.14
2023-03-28T00:34:38.596Z,5.14
2023-03-28T00:37:15.008Z,5.15
2023-03-28T00:39:50.263Z,5.14
2023-03-28T00:42:32.076Z,5.12
2023-03-28T00:45:02.254Z,5.05
2023-03-28T00:47:45.955Z,5.03
2023-03-28T00:50:20.869Z,5.02
2023-03-28T00:52:57.427Z,5.02
2023-03-28T00:55:46.980Z,5.03
2023-03-28T00:58:22.609Z,5.03
2023-03-28T01:00:56.272Z,5.03
2023-03-28T01:03:29.748Z,5.04
2023-03-28T01:06:02.040Z,5.02
2023-03-28T01:08:38.643Z,5.00
2023-03-28T01:11:09.612Z,4.97
2023-03-28T01:13:44.085Z,4.94
2023-03-28T01:16:15.574Z,4.95
2023-03-28T01:18:51.806Z,4.93
2023-03-28T01:21:55.166Z,4.93
2023-03-28T01:24:51.654Z,4.92
2023-03-28T01:27:26.233Z,4.91
2023-03-28T01:30:34.568Z,4.92
2023-03-28T01:33:45.743Z,4.91
2023-03-28T01:36:43.082Z,4.89
2023-03-28T01:39:19.204Z,4.89
2023-03-28T01:41:57.776Z,4.86
2023-03-28T01:44:35.908Z,4.86
2023-03-28T01:47:17.367Z,4.84
2023-03-28T01:49:53.596Z,4.85
2023-03-28T01:52:34.600Z,4.85
2023-03-28T01:55:11.816Z,4.86
2023-03-28T01:57:44.390Z,4.86
2023-03-28T02:00:22.342Z,4.88
2023-03-28T02:02:59.569Z,4.89
2023-03-28T02:05:31.800Z,4.90
2023-03-28T02:08:13.648Z,4.90
2023-03-28T02:10:49.318Z,4.90
2023-03-28T02:13:22.024Z,4.89
2023-03-28T02:15:57.596Z,4.90
2023-03-28T02:18:32.842Z,4.91
2023-03-28T02:21:09.238Z,4.92
2023-03-28T02:23:48.323Z,4.92
2023-03-28T02:26:18.622Z,4.93
2023-03-28T02:28:52.849Z,4.93
2023-03-28T02:31:24.664Z,4.93
2023-03-28T02:33:59.611Z,4.93
2023-03-28T02:36:57.166Z,4.92
2023-03-28T02:39:52.680Z,4.91
2023-03-28T02:42:54.511Z,4.91
2023-03-28T02:46:00.558Z,4.90
2023-03-28T02:48:52.303Z,4.90
2023-03-28T02:51:31.838Z,4.89
2023-03-28T02:54:15.958Z,4.90
2023-03-28T02:57:01.634Z,4.93
2023-03-28T02:59:37.942Z,4.96
2023-03-28T03:02:08.580Z,4.93
2023-03-28T03:04:38.670Z,4.94
2023-03-28T03:07:09.888Z,4.93
2023-03-28T03:09:40.656Z,4.88
2023-03-28T03:12:17.843Z,4.87
2023-03-28T03:14:50.971Z,4.83
2023-03-28T03:17:22.700Z,4.81
2023-03-28T03:19:53.943Z,4.72
2023-03-28T03:22:26.442Z,4.64
2023-03-28T03:24:58.079Z,4.58
2023-03-28T03:27:32.464Z,4.57
2023-03-28T03:30:02.816Z,4.51
2023-03-28T03:32:33.593Z,4.45
2023-03-28T03:35:03.755Z,4.41
2023-03-28T03:37:33.698Z,4.41
2023-03-28T03:40:05.889Z,4.41
2023-03-28T03:42:39.953Z,4.38
2023-03-28T03:45:13.637Z,4.36
2023-03-28T03:47:45.844Z,4.34
2023-03-28T03:50:16.198Z,4.32
2023-03-28T03:52:47.608Z,4.28
2023-03-28T03:55:18.357Z,4.26
2023-03-28T03:57:50.969Z,4.25
2023-03-28T04:00:21.154Z,4.24
2023-03-28T04:02:51.217Z,4.23
2023-03-28T04:05:21.089Z,4.19
2023-03-28T04:07:55.026Z,4.16
2023-03-28T04:10:25.082Z,4.09
2023-03-28T04:12:57.562Z,4.06
2023-03-28T04:15:27.398Z,3.99
2023-03-28T04:18:05.698Z,3.96
2023-03-28T04:20:40.678Z,3.94
2023-03-28T04:23:10.911Z,3.90
2023-03-28T04:25:41.954Z,3.88
2023-03-28T04:28:21.079Z,3.83
2023-03-28T04:30:53.561Z,3.81
2023-03-28T04:33:25.631Z,3.76
2023-03-28T04:36:00.793Z,3.77
2023-03-28T04:38:32.267Z,3.77
2023-03-28T04:41:06.280Z,3.77
2023-03-28T04:43:39.632Z,3.75
2023-03-28T04:46:10.001Z,3.72
2023-03-28T04:48:40.462Z,3.71
2023-03-28T04:51:11.354Z,3.71
2023-03-28T04:53:41.283Z,3.71
2023-03-28T04:56:14.123Z,3.69
2023-03-28T04:58:48.486Z,3.70
2023-03-28T05:01:18.708Z,3.67
2023-03-28T05:03:48.771Z,3.66
2023-03-28T05:06:21.893Z,3.63
2023-03-28T05:08:52.552Z,3.58
2023-03-28T05:11:24.368Z,3.52
2023-03-28T05:13:57.132Z,3.45
2023-03-28T05:16:26.946Z,3.42
2023-03-28T05:18:56.795Z,3.43
2023-03-28T05:21:29.208Z,3.43
2023-03-28T05:23:59.308Z,3.42
2023-03-28T05:26:29.163Z,3.44
2023-03-28T05:29:01.673Z,3.46
2023-03-28T05:31:34.956Z,3.50
2023-03-28T05:34:04.781Z,3.52
2023-03-28T05:36:34.604Z,3.54
2023-03-28T05:39:05.412Z,3.61
2023-03-28T05:41:38.195Z,3.69
2023-03-28T05:44:10.824Z,3.82
2023-03-28T05:46:40.864Z,3.96
2023-03-28T05:49:12.396Z,4.05
2023-03-28T05:51:42.246Z,4.08
2023-03-28T05:54:12.394Z,4.11
2023-03-28T05:56:42.414Z,4.15
2023-03-28T05:59:15.858Z,4.23
2023-03-28T06:01:46.810Z,4.28
2023-03-28T06:04:17.189Z,4.33
2023-03-28T06:06:48.873Z,4.39
2023-03-28T06:09:19.069Z,4.42
2023-03-28T06:11:49.049Z,4.46
2023-03-28T06:14:21.818Z,4.49
2023-03-28T06:16:51.988Z,4.52
2023-03-28T06:19:22.349Z,4.56
2023-03-28T06:21:53.468Z,4.59
2023-03-28T06:24:24.396Z,4.61
2023-03-28T06:27:00.501Z,4.64
2023-03-28T06:29:34.343Z,4.69
2023-03-28T06:32:04.467Z,4.73
2023-03-28T06:34:34.438Z,4.73
2023-03-28T06:40:35.672Z,4.87
2023-03-28T06:43:05.916Z,4.96
2023-03-28T06:45:38.534Z,5.08
2023-03-28T06:48:33.600Z,5.19
2023-03-28T06:51:26.166Z,5.41
2023-03-28T07:01:09.648Z,6.02
2023-03-28T07:03:51.451Z,6.20
2023-03-28T07:06:57.989Z,6.29
2023-03-28T07:10:07.908Z,6.33
2023-03-28T07:12:37.904Z,6.29
2023-03-28T07:15:17.822Z,6.25
2023-03-28T07:20:32.314Z,6.19
2023-03-28T07:23:18.080Z,6.19
2023-03-28T07:25:49.509Z,6.16
2023-03-28T07:32:08.609Z,6.18
2023-03-28T07:34:59.975Z,6.21
2023-03-28T07:37:35.150Z,6.26
2023-03-28T07:40:05.657Z,6.30
2023-03-28T07:42:37.075Z,6.38
2023-03-28T07:45:11.771Z,6.47
2023-03-28T07:50:45.633Z,6.61
2023-03-28T07:54:01.943Z,6.70
2023-03-28T07:57:12.274Z,6.79
2023-03-28T08:03:44.746Z,7.35
2023-03-28T08:06:39.223Z,7.61
2023-03-28T08:15:24.656Z,8.51
2023-03-28T08:17:56.092Z,8.79
2023-03-28T08:20:36.368Z,9.01
2023-03-28T08:23:15.002Z,9.14
2023-03-28T08:25:50.640Z,9.23
2023-03-28T08:28:26.359Z,9.34
2023-03-28T08:30:56.346Z,9.37
2023-03-28T08:33:30.078Z,9.39
2023-03-28T08:36:00.040Z,9.37
2023-03-28T08:38:30.038Z,9.41
2023-03-28T08:41:14.609Z,9.41
2023-03-28T08:43:59.379Z,9.33
2023-03-28T08:46:34.242Z,9.26
2023-03-28T08:49:22.212Z,9.21
2023-03-28T08:52:17.712Z,9.19
2023-03-28T08:55:12.055Z,9.20
2023-03-28T08:58:02.819Z,9.16
2023-03-28T09:01:17.457Z,9.16
2023-03-28T09:03:47.391Z,9.13
2023-03-28T09:06:27.278Z,9.13
2023-03-28T09:09:32.558Z,9.07
2023-03-28T09:12:10.866Z,9.03
2023-03-28T09:15:16.592Z,8.99
2023-03-28T09:18:13.124Z,8.89
2023-03-28T09:21:14.715Z,8.76
2023-03-28T09:30:52.161Z,8.43
2023-03-28T09:33:28.240Z,8.40
2023-03-28T09:41:41.985Z,8.46
2023-03-28T09:44:16.057Z,8.51
2023-03-28T09:46:51.201Z,8.55
2023-03-28T09:49:24.642Z,8.61
2023-03-28T09:51:57.762Z,8.66
2023-03-28T09:54:33.117Z,8.73
2023-03-28T09:57:06.095Z,8.79
2023-03-28T09:59:37.786Z,8.86
2023-03-28T10:02:29.185Z,9.00
2023-03-28T10:04:59.342Z,9.09
2023-03-28T10:07:35.664Z,9.17
2023-03-28T10:13:02.508Z,9.24
2023-03-28T10:21:57.119Z,9.27
2023-03-28T10:24:28.423Z,9.29
2023-03-28T10:27:01.305Z,9.34
2023-03-28T10:29:31.583Z,9.37
2023-03-28T10:32:27.473Z,9.40
2023-03-28T10:37:38.663Z,9.58
2023-03-28T10:40:29.413Z,9.71
2023-03-28T10:43:00.314Z,9.84
2023-03-28T10:45:37.482Z,9.95
2023-03-28T10:48:16.221Z,10.07
2023-03-28T10:50:49.276Z,10.13
2023-03-28T10:53:49.589Z,10.22
2023-03-28T10:56:29.552Z,10.22
2023-03-28T10:59:15.036Z,10.26
2023-03-28T11:05:07.487Z,10.27
2023-03-28T11:07:45.796Z,10.25
2023-03-28T11:10:26.503Z,10.24
2023-03-28T11:13:29.445Z,10.19
2023-03-28T11:16:30.293Z,10.16
2023-03-28T11:19:12.647Z,10.15
2023-03-28T11:21:53.144Z,10.14
2023-03-28T11:24:32.529Z,10.14
2023-03-28T11:27:16.294Z,10.18
2023-03-28T11:29:49.974Z,10.24
2023-03-28T11:32:24.489Z,10.27
2023-03-28T11:35:05.870Z,10.29
2023-03-28T11:37:42.952Z,10.30
2023-03-28T11:40:25.724Z,10.31
2023-03-28T11:43:03.334Z,10.29
2023-03-28T11:45:50.454Z,10.26
2023-03-28T11:48:28.070Z,10.26
2023-03-28T11:51:05.907Z,10.30
2023-03-28T11:53:40.665Z,10.34
2023-03-28T11:56:23.611Z,10.41
2023-03-28T11:59:02.481Z,10.42
2023-03-28T12:01:35.883Z,10.45
2023-03-28T12:04:15.342Z,10.46
2023-03-28T12:07:02.224Z,10.50
2023-03-28T12:09:40.275Z,10.50
2023-03-28T12:12:20.394Z,10.55
2023-03-28T12:15:00.389Z,10.60
2023-03-28T12:25:33.812Z,10.82
2023-03-28T12:28:10.373Z,10.85
2023-03-28T12:30:49.118Z,10.87
2023-03-28T12:33:31.043Z,10.87
2023-03-28T12:36:10.743Z,10.83
2023-03-28T12:38:45.011Z,10.90
2023-03-28T12:41:18.218Z,10.96
2023-03-28T12:43:55.215Z,11.01
2023-03-28T12:46:31.285Z,11.02
2023-03-28T12:49:04.758Z,11.00
2023-03-28T12:51:39.726Z,10.98
2023-03-28T12:54:13.299Z,10.97
2023-03-28T12:56:43.892Z,10.99
2023-03-28T12:59:52.700Z,10.99
2023-03-28T13:02:34.600Z,10.95
2023-03-28T13:05:14.073Z,10.96
2023-03-28T13:08:00.718Z,10.96
2023-03-28T13:10:37.382Z,10.95
2023-03-28T13:13:20.001Z,10.95
2023-03-28T13:15:59.411Z,10.95
2023-03-28T13:18:51.521Z,10.94
2023-03-28T13:27:33.083Z,10.88
2023-03-28T13:30:10.976Z,10.85
2023-03-28T13:32:46.325Z,10.85
2023-03-28T13:35:47.790Z,10.86
2023-03-28T13:38:26.211Z,10.81
2023-03-28T13:40:59.939Z,10.82
2023-03-28T13:43:43.767Z,10.85
2023-03-28T13:46:17.175Z,10.86
2023-03-28T13:48:53.369Z,10.88
2023-03-28T13:51:29.509Z,10.89
2023-03-28T13:53:59.488Z,10.89
2023-03-28T13:56:33.095Z,10.86
2023-03-28T13:59:07.256Z,10.81
2023-03-28T14:01:38.923Z,10.77
2023-03-28T14:04:13.853Z,10.75
2023-03-28T14:06:52.866Z,10.75
2023-03-28T14:09:24.929Z,10.74
2023-03-28T14:11:55.095Z,10.68
2023-03-28T14:14:32.804Z,10.65
2023-03-28T14:17:04.566Z,10.60
2023-03-28T14:19:41.497Z,10.56
2023-03-28T14:22:18.723Z,10.50
2023-03-28T14:24:52.451Z,10.43
2023-03-28T14:27:37.493Z,10.38
2023-03-28T14:30:21.185Z,10.35
2023-03-28T14:33:02.029Z,10.34
2023-03-28T14:35:33.814Z,10.33
2023-03-28T14:38:09.664Z,10.31
2023-03-28T14:40:44.342Z,10.25
2023-03-28T14:43:27.349Z,10.22
2023-03-28T14:46:03.089Z,10.20
2023-03-28T14:48:33.595Z,10.22
2023-03-28T14:51:07.598Z,10.22
2023-03-28T14:53:45.994Z,10.22
2023-03-28T14:56:20.380Z,10.23
2023-03-28T14:58:53.126Z,10.21
2023-03-28T15:01:25.845Z,10.21
2023-03-28T15:03:59.550Z,10.22
2023-03-28T15:06:29.899Z,10.21
2023-03-28T15:09:12.639Z,10.23
2023-03-28T15:14:37.138Z,10.24
2023-03-28T15:17:09.663Z,10.24
2023-03-28T15:19:51.475Z,10.22
2023-03-28T15:22:26.843Z,10.20
2023-03-28T15:25:01.053Z,10.14
2023-03-28T15:27:34.767Z,10.07
2023-03-28T15:44:41.963Z,9.75
2023-03-28T15:47:22.069Z,9.71
2023-03-28T15:49:52.636Z,9.65
2023-03-28T15:52:24.327Z,9.58
2023-03-28T15:54:56.858Z,9.52
2023-03-28T15:57:32.965Z,9.43
2023-03-28T16:00:03.212Z,9.37
2023-03-28T16:02:37.554Z,9.36
2023-03-28T16:05:29.014Z,9.31
2023-03-28T16:08:00.287Z,9.23
2023-03-28T16:10:30.382Z,9.21
2023-03-28T16:13:03.501Z,9.22
2023-03-28T16:15:33.790Z,9.17
2023-03-28T16:18:03.811Z,9.10
2023-03-28T16:20:33.802Z,9.03
2023-03-28T16:23:04.461Z,8.99
2023-03-28T16:25:34.336Z,8.94
2023-03-28T16:28:07.041Z,8.86
2023-03-28T16:30:40.734Z,8.79
2023-03-28T16:33:10.861Z,8.68
2023-03-28T16:35:40.958Z,8.59
2023-03-28T16:38:14.236Z,8.51
2023-03-28T16:40:45.586Z,8.46
2023-03-28T16:43:18.474Z,8.41
2023-03-28T16:45:52.523Z,8.35
2023-03-28T16:48:22.555Z,8.32
2023-03-28T16:50:56.308Z,8.30
2023-03-28T16:53:29.731Z,8.28
2023-03-28T16:55:59.887Z,8.27
2023-03-28T16:58:41.890Z,8.28
2023-03-28T17:01:18.107Z,8.32
2023-03-28T17:03:48.402Z,8.38
2023-03-28T17:06:27.734Z,8.41
2023-03-28T17:08:59.017Z,8.43
2023-03-28T17:11:30.662Z,8.44
2023-03-28T17:14:03.093Z,8.49
2023-03-28T17:16:32.978Z,8.51
2023-03-28T17:19:02.954Z,8.51
2023-03-28T17:24:25.910Z,8.51
2023-03-28T17:26:56.267Z,8.53
2023-03-28T17:29:30.348Z,8.53
2023-03-28T17:32:00.299Z,8.54
2023-03-28T17:34:32.078Z,8.54
2023-03-28T17:37:02.428Z,8.54
2023-03-28T17:39:32.989Z,8.54
2023-03-28T17:42:02.803Z,8.55
2023-03-28T17:44:35.577Z,8.55
2023-03-28T17:47:05.497Z,8.56
2023-03-28T17:49:36.100Z,8.58
2023-03-28T17:52:06.384Z,8.59
2023-03-28T17:54:36.366Z,8.57
2023-03-28T17:57:08.218Z,8.57
2023-03-28T17:59:40.767Z,8.56
2023-03-28T18:02:10.646Z,8.50
2023-03-28T18:04:40.711Z,8.47
2023-03-28T18:07:16.461Z,8.39
2023-03-28T18:09:53.595Z,8.28
2023-03-28T18:12:23.455Z,8.20
2023-03-28T18:14:59.509Z,8.14
2023-03-28T18:17:31.024Z,8.10
2023-03-28T18:20:02.031Z,8.06
2023-03-28T18:22:32.125Z,8.03
2023-03-28T18:25:03.221Z,7.97
2023-03-28T18:27:33.104Z,7.93
2023-03-28T18:30:08.444Z,7.85
2023-03-28T18:32:39.384Z,7.82
2023-03-28T18:35:10.420Z,7.78
2023-03-28T18:37:46.688Z,7.79
2023-03-28T18:40:17.156Z,7.79
2023-03-28T18:42:47.146Z,7.78
2023-03-28T18:45:19.773Z,7.80
2023-03-28T18:47:49.617Z,7.82
2023-03-28T18:50:19.726Z,7.82
2023-03-28T18:52:49.514Z,7.78
2023-03-28T18:55:19.740Z,7.77
2023-03-28T18:57:49.537Z,7.75
2023-03-28T19:00:22.986Z,7.71
2023-03-28T19:02:53.309Z,7.71
2023-03-28T19:05:24.760Z,7.70
2023-03-28T19:07:55.763Z,7.71
2023-03-28T19:10:26.218Z,7.73
2023-03-28T19:12:56.365Z,7.72
2023-03-28T19:15:29.057Z,7.73
2023-03-28T19:18:02.984Z,7.72
2023-03-28T19:20:32.904Z,7.69
2023-03-28T19:23:02.811Z,7.68
2023-03-28T19:25:34.762Z,7.66
2023-03-28T19:28:09.276Z,7.65
2023-03-28T19:30:43.996Z,7.63
2023-03-28T19:33:14.539Z,7.60
2023-03-28T19:35:44.817Z,7.61
2023-03-28T19:38:18.459Z,7.60
2023-03-28T19:40:48.352Z,7.55
2023-03-28T19:43:24.061Z,7.51
2023-03-28T19:45:56.743Z,7.48
2023-03-28T19:48:28.290Z,7.46
2023-03-28T19:50:58.088Z,7.41
2023-03-28T19:53:27.990Z,7.40
2023-03-28T19:55:59.418Z,7.39
2023-03-28T19:58:31.231Z,7.39
2023-03-28T20:01:04.245Z,7.39
2023-03-28T20:03:34.302Z,7.38
2023-03-28T20:06:09.328Z,7.39
2023-03-28T20:08:39.314Z,7.39
2023-03-28T20:11:15.020Z,7.40
2023-03-28T20:13:45.063Z,7.39
2023-03-28T20:16:17.572Z,7.41
2023-03-28T20:18:49.287Z,7.40
2023-03-28T20:21:23.597Z,7.40
2023-03-28T20:23:55.182Z,7.41
2023-03-28T20:26:27.344Z,7.42
2023-03-28T20:28:59.637Z,7.43
2023-03-28T20:31:32.218Z,7.45
2023-03-28T20:34:03.141Z,7.48
2023-03-28T20:36:33.564Z,7.49
2023-03-28T20:39:03.938Z,7.52
2023-03-28T20:41:33.932Z,7.53
2023-03-28T20:44:06.062Z,7.56
2023-03-28T20:46:42.463Z,7.59
2023-03-28T20:49:12.275Z,7.59
2023-03-28T20:51:44.193Z,7.60
2023-03-28T20:54:14.168Z,7.61
2023-03-28T20:56:47.024Z,7.61
2023-03-28T20:59:16.795Z,7.61
2023-03-28T21:01:49.652Z,7.62
2023-03-28T21:04:19.417Z,7.59
2023-03-28T21:06:50.381Z,7.62
2023-03-28T21:09:20.862Z,7.62
2023-03-28T21:11:50.618Z,7.61
2023-03-28T21:14:20.656Z,7.61
2023-03-28T21:16:56.895Z,7.60
2023-03-28T21:19:29.213Z,7.60
2023-03-28T21:21:59.467Z,7.58
2023-03-28T21:24:29.294Z,7.59
2023-03-28T21:26:59.083Z,7.57
2023-03-28T21:29:28.855Z,7.57
2023-03-28T21:32:01.324Z,7.57
2023-03-28T21:34:34.191Z,7.56
2023-03-28T21:37:04.004Z,7.58
2023-03-28T21:39:33.806Z,7.59
2023-03-28T21:42:03.591Z,7.57
2023-03-28T21:44:33.777Z,7.57
2023-03-28T21:47:09.105Z,7.55
2023-03-28T21:49:39.314Z,7.54
2023-03-28T21:52:09.491Z,7.54
2023-03-28T21:54:39.265Z,7.52
2023-03-28T21:57:09.104Z,7.52
2023-03-28T21:59:41.254Z,7.52
2023-03-28T22:02:13.832Z,7.51
2023-03-28T22:04:44.195Z,7.49
2023-03-28T22:07:13.958Z,7.48
2023-03-28T22:09:44.810Z,7.47
2023-03-28T22:12:15.055Z,7.46
2023-03-28T22:14:44.816Z,7.43
2023-03-28T22:17:18.740Z,7.40
2023-03-28T22:19:54.075Z,7.39
2023-03-28T22:22:28.354Z,7.35
2023-03-28T22:24:58.720Z,7.34
2023-03-28T22:27:30.430Z,7.32
2023-03-28T22:30:00.569Z,7.31
2023-03-28T22:32:32.980Z,7.30
2023-03-28T22:35:02.907Z,7.30
2023-03-28T22:37:32.682Z,7.29
2023-03-28T22:40:02.523Z,7.29
2023-03-28T22:42:33.085Z,7.27
2023-03-28T22:45:02.871Z,7.27
2023-03-28T22:47:39.696Z,7.26
2023-03-28T22:50:11.963Z,7.26
2023-03-28T22:52:42.155Z,7.24
2023-03-28T22:55:13.779Z,7.24
2023-03-28T22:57:44.729Z,7.24
2023-03-28T23:00:17.489Z,7.25
2023-03-28T23:02:49.948Z,7.25
2023-03-28T23:05:21.769Z,7.25
2023-03-28T23:07:55.719Z,7.26
2023-03-28T23:10:25.529Z,7.26
2023-03-28T23:12:55.305Z,7.25
2023-03-28T23:15:25.362Z,7.24
2023-03-28T23:17:58.271Z,7.24
2023-03-28T23:20:30.482Z,7.23
2023-03-28T23:23:00.246Z,7.24
2023-03-28T23:25:30.878Z,7.25
2023-03-28T23:28:00.693Z,7.25
2023-03-28T23:30:30.465Z,7.27
2023-03-28T23:33:03.024Z,7.28
2023-03-28T23:35:32.962Z,7.28
2023-03-28T23:38:02.800Z,7.27
2023-03-28T23:40:32.593Z,7.28
2023-03-28T23:43:02.389Z,7.26
2023-03-28T23:45:32.235Z,7.25
2023-03-28T23:48:04.770Z,7.24
2023-03-28T23:50:36.342Z,7.25
2023-03-28T23:53:06.747Z,7.26
2023-03-28T23:55:36.640Z,7.24
2023-03-28T23:58:06.957Z,7.20
